Time;durP1;ratioP1;P1;durP2;ratioP2;P2;SDS_P1;SDS_P2;PMS_P1;PMS_P2;Temp;Humidity;BMP_temperature;BMP_pressure;BME280_temperature;BME280_humidity;BME280_pressure;Samples;Min_cycle;Max_cycle;Signal;HPM_P1;HPM_P2
2023/08/02 00:02:02;;;;;;;5.07;3.20;;;14.70;99.90;14.30;98726;;;;564195;252;24090;-83
2023/08/02 00:04:30;;;;;;;4.57;3.37;;;14.70;99.90;14.30;98716;;;;563922;252;24092;-79
2023/08/02 00:06:59;;;;;;;5.17;3.60;;;14.70;99.90;14.30;98714;;;;564054;252;24170;-80
2023/08/02 00:09:27;;;;;;;3.37;3.07;;;14.60;99.90;14.30;98709;;;;553425;253;24128;-80
2023/08/02 00:11:55;;;;;;;6.30;3.83;;;14.60;99.90;14.20;98712;;;;566454;249;24127;-85
2023/08/02 00:14:26;;;;;;;4.90;3.60;;;14.60;99.90;14.20;98721;;;;575406;249;24106;-83
2023/08/02 00:16:51;;;;;;;6.73;3.80;;;14.50;99.90;14.20;98721;;;;566159;252;24093;-81
2023/08/02 00:19:19;;;;;;;5.17;3.57;;;14.60;99.90;14.20;98726;;;;563931;250;24110;-79
2023/08/02 00:21:47;;;;;;;3.80;3.40;;;14.50;99.90;14.20;98723;;;;563353;252;24083;-81
2023/08/02 00:24:15;;;;;;;8.80;3.67;;;14.50;99.90;14.10;98719;;;;563646;250;24095;-86
2023/08/02 00:26:42;;;;;;;3.97;3.43;;;14.50;99.90;14.10;98730;;;;564316;250;24097;-83
2023/08/02 00:29:11;;;;;;;5.20;3.83;;;14.50;99.90;14.10;98718;;;;565492;250;24157;-86
2023/08/02 00:31:38;;;;;;;4.37;3.13;;;14.50;99.90;14.10;98732;;;;564031;250;24134;-84
2023/08/02 00:34:10;;;;;;;3.27;2.97;;;14.50;99.90;14.10;98725;;;;563750;251;24082;-85
2023/08/02 00:36:35;;;;;;;4.37;3.63;;;14.40;99.90;14.10;98726;;;;563404;252;24086;-83
2023/08/02 00:39:03;;;;;;;6.93;4.10;;;14.40;99.90;14.00;98724;;;;564250;252;24098;-83
2023/08/02 00:41:31;;;;;;;6.60;4.03;;;14.40;99.90;14.00;98719;;;;564261;250;24072;-85
2023/08/02 00:43:59;;;;;;;3.97;3.67;;;14.40;99.90;14.00;98722;;;;564165;250;24127;-86
2023/08/02 00:46:26;;;;;;;7.13;4.37;;;14.40;99.90;14.00;98720;;;;564131;251;24094;-85
2023/08/02 00:48:54;;;;;;;4.53;3.93;;;14.40;99.90;14.00;98725;;;;563235;252;24112;-80
2023/08/02 00:51:22;;;;;;;4.43;4.03;;;14.40;99.90;14.00;98729;;;;563505;252;24108;-85
2023/08/02 00:53:54;;;;;;;4.03;3.70;;;14.40;99.90;14.00;98724;;;;563542;252;24127;-86
2023/08/02 00:56:18;;;;;;;4.90;4.33;;;14.40;99.90;14.00;98719;;;;565632;250;24088;-80
2023/08/02 00:58:46;;;;;;;5.20;4.53;;;14.40;99.90;14.00;98726;;;;566898;249;24137;-83
2023/08/02 01:01:14;;;;;;;4.57;4.17;;;14.40;99.90;14.00;98719;;;;566616;248;24091;-78
2023/08/02 01:03:46;;;;;;;4.80;3.57;;;14.30;99.90;14.00;98725;;;;566343;250;24079;-79
2023/08/02 01:06:32;;;;;;;4.50;4.10;;;14.30;99.90;13.90;98725;;;;565579;249;24109;-78
2023/08/02 01:09:05;;;;;;;4.40;3.13;;;14.30;99.90;13.90;98731;;;;572703;251;24144;-83
2023/08/02 01:11:45;;;;;;;5.77;4.10;;;14.30;99.90;13.80;98730;;;;562981;252;24105;-82
2023/08/02 01:14:13;;;;;;;3.60;3.30;;;14.20;99.90;13.80;98732;;;;563502;252;24118;-79
2023/08/02 01:16:41;;;;;;;4.47;4.07;;;14.10;99.90;13.70;98733;;;;563920;252;24129;-85
2023/08/02 01:19:12;;;;;;;3.57;3.27;;;14.10;99.90;13.70;98744;;;;563510;250;24176;-81
2023/08/02 01:21:38;;;;;;;3.93;3.50;;;14.10;99.90;13.70;98742;;;;563328;252;24092;-81
2023/08/02 01:24:05;;;;;;;6.10;3.57;;;14.10;99.90;13.70;98734;;;;564013;250;24072;-80
2023/08/02 01:26:33;;;;;;;4.10;3.70;;;14.10;99.90;13.70;98744;;;;563928;250;24092;-80
2023/08/02 01:29:01;;;;;;;5.73;4.37;;;14.10;99.90;13.70;98746;;;;563717;252;24131;-82
2023/08/02 01:31:32;;;;;;;4.33;3.93;;;14.10;99.90;13.70;98736;;;;563431;250;24118;-79
2023/08/02 01:33:57;;;;;;;4.30;3.90;;;14.10;99.90;13.70;98739;;;;564660;250;24083;-79
2023/08/02 01:36:25;;;;;;;5.20;4.70;;;14.10;99.90;13.70;98743;;;;552576;257;24145;-80
2023/08/02 01:38:53;;;;;;;6.57;5.95;;;14.10;99.90;13.70;98745;;;;559117;250;46190;-81
2023/08/02 01:41:21;;;;;;;5.20;4.70;;;14.10;99.90;13.80;98746;;;;564973;250;24084;-81
2023/08/02 01:43:49;;;;;;;5.80;4.40;;;14.10;99.90;13.80;98739;;;;563741;250;24095;-80
2023/08/02 01:46:17;;;;;;;5.77;4.27;;;14.10;99.90;13.70;98741;;;;563492;250;24111;-84
2023/08/02 01:48:45;;;;;;;5.90;3.53;;;14.10;99.90;13.70;98737;;;;563153;250;24099;-79
2023/08/02 01:51:13;;;;;;;4.13;3.83;;;14.10;99.90;13.70;98739;;;;563170;251;24130;-80
2023/08/02 01:53:41;;;;;;;6.47;4.00;;;14.10;99.90;13.70;98748;;;;563360;252;24120;-79
2023/08/02 01:56:09;;;;;;;4.40;3.70;;;14.00;99.90;13.70;98750;;;;563553;252;24079;-79
2023/08/02 01:58:37;;;;;;;4.87;3.77;;;14.00;99.90;13.70;98740;;;;563938;250;24094;-78
2023/08/02 02:01:05;;;;;;;5.87;4.43;;;14.00;99.90;13.60;98753;;;;564629;251;24176;-80
2023/08/02 02:03:33;;;;;;;10.50;4.27;;;14.00;99.90;13.60;98746;;;;564182;249;24091;-78
2023/08/02 02:06:01;;;;;;;5.10;3.87;;;14.00;99.90;13.60;98761;;;;564855;250;24225;-79
2023/08/02 02:08:29;;;;;;;4.33;3.93;;;14.00;99.90;13.60;98762;;;;568704;249;24077;-82
2023/08/02 02:10:56;;;;;;;4.77;4.10;;;13.90;99.90;13.60;98765;;;;567594;249;24155;-82
2023/08/02 02:13:27;;;;;;;5.00;4.03;;;13.90;99.90;13.60;98772;;;;566404;249;24108;-81
2023/08/02 02:15:53;;;;;;;5.37;4.40;;;13.90;99.90;13.60;98773;;;;563725;252;25197;-80
2023/08/02 02:18:21;;;;;;;8.03;4.63;;;13.90;99.90;13.70;98780;;;;563897;252;24169;-78
2023/08/02 02:20:49;;;;;;;4.33;3.93;;;14.00;99.90;13.70;98779;;;;563629;252;24095;-84
2023/08/02 02:23:17;;;;;;;4.77;4.13;;;14.00;99.90;13.70;98770;;;;563926;249;24085;-85
2023/08/02 02:25:45;;;;;;;4.80;4.37;;;14.00;99.90;13.70;98776;;;;566103;250;24102;-83
2023/08/02 02:28:13;;;;;;;4.60;4.23;;;14.10;99.90;13.70;98772;;;;566229;250;24084;-80
2023/08/02 02:30:47;;;;;;;5.00;4.60;;;14.10;99.90;13.70;98777;;;;563574;252;24089;-80
2023/08/02 02:33:12;;;;;;;5.10;4.27;;;14.00;99.90;13.60;98772;;;;562891;252;24102;-81
2023/08/02 02:35:41;;;;;;;5.30;4.70;;;14.00;99.90;13.60;98781;;;;564024;250;24103;-84
2023/08/02 02:38:12;;;;;;;5.50;4.37;;;13.90;99.90;13.60;98784;;;;564933;250;24114;-80
2023/08/02 02:40:37;;;;;;;4.20;3.90;;;14.00;99.90;13.60;98780;;;;563540;252;24141;-80
2023/08/02 02:43:05;;;;;;;7.50;4.27;;;14.00;99.90;13.60;98785;;;;563414;251;24083;-79
2023/08/02 02:45:32;;;;;;;4.93;4.43;;;14.00;99.90;13.70;98795;;;;563533;249;24138;-80
2023/08/02 02:48:00;;;;;;;5.00;4.57;;;14.00;99.90;13.80;98801;;;;572181;248;24107;-80
2023/08/02 02:50:28;;;;;;;8.03;4.83;;;14.10;99.90;13.80;98800;;;;563007;252;24087;-81
2023/08/02 02:52:56;;;;;;;5.03;4.53;;;14.20;99.90;13.90;98800;;;;571855;249;24073;-84
2023/08/02 02:55:24;;;;;;;9.67;5.03;;;14.20;99.90;14.00;98802;;;;563157;252;24101;-85
2023/08/02 02:57:52;;;;;;;10.50;5.40;;;14.30;99.90;14.10;98800;;;;563425;250;24118;-83
2023/08/02 03:00:20;;;;;;;5.60;5.10;;;14.40;99.90;14.20;98804;;;;563254;252;24076;-81
2023/08/02 03:02:48;;;;;;;5.47;4.97;;;14.50;99.90;14.20;98797;;;;563149;250;24089;-82
2023/08/02 03:05:16;;;;;;;5.50;5.00;;;14.60;99.90;14.30;98795;;;;565609;250;24090;-80
2023/08/02 03:07:44;;;;;;;6.97;5.13;;;14.60;99.90;14.30;98794;;;;574129;246;24188;-83
2023/08/02 03:10:12;;;;;;;6.33;5.17;;;14.70;99.90;14.40;98801;;;;566064;250;24132;-84
2023/08/02 03:12:39;;;;;;;4.90;4.50;;;14.70;99.90;14.40;98798;;;;564450;249;24079;-84
2023/08/02 03:15:08;;;;;;;4.90;4.50;;;14.70;99.90;14.40;98795;;;;564295;250;24076;-83
2023/08/02 03:17:36;;;;;;;5.67;5.17;;;14.80;99.90;14.50;98802;;;;564490;249;24089;-85
2023/08/02 03:20:07;;;;;;;9.57;5.33;;;14.80;99.90;14.50;98800;;;;565197;250;26322;-80
2023/08/02 03:22:31;;;;;;;5.20;4.80;;;14.90;99.90;14.60;98803;;;;567559;250;24118;-86
2023/08/02 03:24:59;;;;;;;7.53;5.47;;;14.90;99.90;14.60;98812;;;;564780;250;24087;-84
2023/08/02 03:27:27;;;;;;;6.50;5.60;;;14.90;99.90;14.60;98805;;;;563889;250;24082;-84
2023/08/02 03:29:56;;;;;;;5.50;5.00;;;14.90;99.90;14.70;98808;;;;563770;250;24092;-80
2023/08/02 03:32:23;;;;;;;8.37;5.50;;;15.00;99.90;14.70;98816;;;;563680;250;24086;-83
2023/08/02 03:34:51;;;;;;;5.30;4.80;;;15.00;99.90;14.70;98813;;;;564098;250;24095;-81
2023/08/02 03:37:22;;;;;;;5.57;5.03;;;15.00;99.90;14.70;98820;;;;564512;250;24069;-82
2023/08/02 03:39:47;;;;;;;5.93;4.97;;;15.00;99.90;14.80;98813;;;;564008;249;24096;-81
2023/08/02 03:42:15;;;;;;;7.17;4.77;;;15.10;99.90;14.80;98808;;;;572151;248;24084;-80
2023/08/02 03:44:43;;;;;;;5.73;5.23;;;15.10;99.90;14.80;98808;;;;563789;250;24111;-80
2023/08/02 03:47:10;;;;;;;5.60;5.03;;;15.20;99.90;14.80;98802;;;;564222;250;24138;-80
2023/08/02 03:49:41;;;;;;;9.70;5.33;;;15.20;99.90;14.80;98808;;;;564018;250;24106;-78
2023/08/02 03:52:06;;;;;;;7.70;4.93;;;15.20;99.90;14.70;98807;;;;563987;250;24150;-80
2023/08/02 03:54:34;;;;;;;7.57;4.83;;;15.10;99.90;14.80;98807;;;;572715;250;24090;-79
2023/08/02 03:57:02;;;;;;;4.77;4.30;;;15.10;99.90;15.00;98805;;;;564126;250;24134;-80
2023/08/02 03:59:30;;;;;;;9.27;5.80;;;15.30;99.90;15.90;98806;;;;563627;250;24087;-83
2023/08/02 04:01:59;;;;;;;8.47;5.70;;;16.90;99.90;16.80;98806;;;;563910;250;24103;-82
2023/08/02 04:04:27;;;;;;;5.77;5.27;;;16.90;99.90;16.90;98807;;;;563828;250;24095;-78
2023/08/02 04:06:54;;;;;;;5.60;4.50;;;17.30;99.90;16.70;98805;;;;563914;250;24083;-79
2023/08/02 04:09:22;;;;;;;4.00;3.77;;;17.10;99.90;16.50;98807;;;;563881;250;24134;-80
2023/08/02 04:11:50;;;;;;;3.97;3.70;;;17.00;99.90;16.30;98807;;;;564174;250;24084;-83
2023/08/02 04:14:18;;;;;;;4.47;4.17;;;16.80;99.90;16.30;98805;;;;564154;249;24186;-80
2023/08/02 04:16:49;;;;;;;4.20;3.90;;;16.70;99.90;16.20;98802;;;;563808;250;24080;-80
2023/08/02 04:19:17;;;;;;;5.90;3.90;;;16.60;99.90;16.30;98799;;;;564099;250;24090;-83
2023/08/02 04:21:42;;;;;;;4.97;4.40;;;16.60;99.90;16.70;98795;;;;558647;250;35324;-83
2023/08/02 04:24:15;;;;;;;4.17;3.87;;;17.10;99.90;16.70;98801;;;;563800;250;24087;-81
2023/08/02 04:26:39;;;;;;;3.53;3.30;;;17.10;99.90;16.70;98798;;;;560394;249;24082;-85
2023/08/02 04:29:06;;;;;;;7.47;3.60;;;17.10;99.90;16.90;98805;;;;564419;249;24137;-81
2023/08/02 04:31:34;;;;;;;3.40;3.10;;;17.30;99.90;17.50;98809;;;;565265;250;24081;-82
2023/08/02 04:34:02;;;;;;;4.03;3.40;;;17.90;99.90;18.30;98813;;;;564860;249;24147;-85
2023/08/02 04:36:31;;;;;;;3.37;3.17;;;19.10;99.90;18.60;98813;;;;564619;250;24074;-83
2023/08/02 04:39:02;;;;;;;2.80;2.40;;;19.00;99.90;18.50;98812;;;;564359;248;24087;-82
2023/08/02 04:41:27;;;;;;;2.77;2.50;;;19.00;99.90;18.50;98813;;;;564221;250;24082;-80
2023/08/02 04:43:55;;;;;;;2.50;2.40;;;19.10;99.90;18.40;98808;;;;565031;250;23125;-85
2023/08/02 04:46:23;;;;;;;2.10;2.00;;;18.90;99.90;18.20;98809;;;;564847;250;24096;-84
2023/08/02 04:48:51;;;;;;;5.70;2.53;;;18.80;99.90;18.60;98811;;;;564378;250;24124;-85
2023/08/02 04:51:18;;;;;;;4.63;2.80;;;19.00;99.90;19.30;98825;;;;564618;250;24090;-83
2023/08/02 04:53:49;;;;;;;2.70;2.50;;;19.70;99.90;19.40;98819;;;;563665;250;23127;-80
2023/08/02 04:56:17;;;;;;;2.30;2.10;;;19.90;99.90;19.30;98821;;;;564351;250;24080;-79
2023/08/02 04:58:45;;;;;;;2.77;2.13;;;19.80;99.90;19.20;98818;;;;572893;247;24123;-79
2023/08/02 05:01:13;;;;;;;2.40;2.30;;;19.70;99.90;19.00;98816;;;;564635;250;23112;-84
2023/08/02 05:03:44;;;;;;;2.33;1.70;;;19.50;99.90;18.90;98813;;;;564485;250;23093;-80
2023/08/02 05:06:09;;;;;;;4.70;2.30;;;19.40;99.90;18.90;98804;;;;564052;250;24099;-81
2023/08/02 05:08:37;;;;;;;4.10;2.07;;;19.30;99.90;18.90;98804;;;;564235;250;24093;-80
2023/08/02 05:11:07;;;;;;;2.10;2.00;;;19.30;99.90;19.10;98800;;;;573228;247;23132;-81
2023/08/02 05:13:35;;;;;;;1.97;1.87;;;19.50;99.90;19.40;98801;;;;573449;249;23114;-78
2023/08/02 05:16:07;;;;;;;2.13;1.90;;;19.70;99.90;20.70;98813;;;;564697;250;24071;-80
2023/08/02 05:18:31;;;;;;;2.70;1.70;;;20.80;99.90;21.90;98808;;;;572367;248;24131;-83
2023/08/02 05:21:00;;;;;;;2.03;1.83;;;22.20;99.90;22.70;98821;;;;564562;249;24090;-80
2023/08/02 05:23:28;;;;;;;1.97;1.53;;;23.00;99.90;23.90;98821;;;;572427;250;24106;-79
2023/08/02 05:25:57;;;;;;;1.50;1.40;;;24.30;99.90;24.30;98818;;;;563914;250;24098;-81
2023/08/02 05:28:25;;;;;;;1.23;1.13;;;24.80;99.90;24.20;98811;;;;562904;250;23123;-80
2023/08/02 05:30:53;;;;;;;2.53;1.53;;;24.80;99.90;24.50;98809;;;;563469;250;23109;-80
2023/08/02 05:33:21;;;;;;;7.60;1.80;;;25.10;99.90;24.80;98816;;;;563624;250;23085;-80
2023/08/02 05:35:49;;;;;;;10.00;2.47;;;25.30;99.90;24.90;98816;;;;563551;250;23099;-81
2023/08/02 05:38:17;;;;;;;4.30;1.40;;;25.40;99.90;24.50;98821;;;;563762;249;23093;-80
2023/08/02 05:40:45;;;;;;;6.27;2.37;;;25.10;99.90;23.90;98821;;;;564166;249;23137;-80
2023/08/02 05:43:12;;;;;;;3.77;2.07;;;24.60;99.90;23.70;98815;;;;565426;250;24079;-80
2023/08/02 05:45:40;;;;;;;3.47;1.60;;;24.30;99.90;24.40;98818;;;;565036;250;23190;-78
2023/08/02 05:48:08;;;;;;;8.00;2.00;;;24.80;99.90;24.70;98821;;;;573973;250;23106;-81
2023/08/02 05:50:40;;;;;;;2.17;1.27;;;25.00;99.90;24.70;98820;;;;565166;250;24128;-81
2023/08/02 05:53:07;;;;;;;2.47;1.30;;;25.10;99.90;25.00;98826;;;;565252;250;23209;-79
2023/08/02 05:55:35;;;;;;;1.97;1.87;;;25.40;99.90;24.80;98826;;;;565048;250;24157;-80
2023/08/02 05:58:03;;;;;;;2.17;1.50;;;25.30;99.90;24.50;98830;;;;564772;250;23115;-79
2023/08/02 06:00:31;;;;;;;1.70;1.60;;;25.00;99.90;24.30;98824;;;;564639;250;24162;-80
2023/08/02 06:02:59;;;;;;;1.27;1.23;;;24.80;99.90;24.50;98828;;;;564867;250;23108;-82
2023/08/02 06:05:31;;;;;;;2.60;1.40;;;24.80;99.90;24.90;98818;;;;564738;250;23104;-80
2023/08/02 06:07:58;;;;;;;1.80;1.50;;;25.20;99.90;25.30;98822;;;;573450;249;24121;-80
2023/08/02 06:10:26;;;;;;;2.47;2.00;;;25.60;99.90;26.50;98826;;;;564904;250;23122;-81
2023/08/02 06:12:58;;;;;;;1.70;1.60;;;26.60;99.90;28.30;98826;;;;564631;249;23154;-84
2023/08/02 06:15:22;;;;;;;1.70;1.53;;;28.30;99.90;30.20;98828;;;;564742;250;24103;-81
2023/08/02 06:17:53;;;;;;;2.78;1.80;;;30.30;99.90;31.90;98826;;;;564967;250;24113;-83
2023/08/02 06:20:19;;;;;;;2.25;1.80;;;33.70;90.40;33.60;98829;;;;564846;250;23092;-81
2023/08/02 06:22:47;;;;;;;1.60;1.50;;;33.50;90.30;34.90;98843;;;;564536;250;23092;-82
2023/08/02 06:25:15;;;;;;;2.67;1.77;;;35.10;79.60;35.40;98840;;;;564354;250;24181;-80
2023/08/02 06:27:42;;;;;;;7.87;2.03;;;35.80;75.50;35.10;98847;;;;564292;250;23119;-81
2023/08/02 06:30:11;;;;;;;1.25;1.20;;;34.70;67.60;33.50;98848;;;;564442;250;24124;-81
2023/08/02 06:32:39;;;;;;;4.55;1.80;;;34.60;67.60;31.60;98847;;;;572529;248;23092;-81
2023/08/02 06:35:11;;;;;;;1.48;1.37;;;33.10;69.70;30.80;98848;;;;563905;250;23200;-81
2023/08/02 06:37:35;;;;;;;3.65;1.55;;;31.90;74.10;30.70;98846;;;;563563;250;23127;-79
2023/08/02 06:40:03;;;;;;;2.95;1.65;;;31.50;75.50;30.70;98847;;;;569147;248;23098;-81
2023/08/02 06:42:31;;;;;;;3.15;1.62;;;31.30;77.10;31.00;98850;;;;575874;247;23107;-80
2023/08/02 06:44:59;;;;;;;4.22;1.30;;;31.50;74.70;32.00;98851;;;;563845;250;23158;-81
2023/08/02 06:47:27;;;;;;;1.70;1.30;;;32.20;74.20;32.60;98852;;;;564119;250;24115;-80
2023/08/02 06:49:56;;;;;;;1.95;1.30;;;32.90;72.00;33.60;98854;;;;564423;250;23129;-79
2023/08/02 06:52:24;;;;;;;2.67;1.33;;;34.10;68.20;33.70;98855;;;;565650;249;24132;-79
2023/08/02 06:54:55;;;;;;;3.05;1.30;;;34.00;68.10;32.90;98852;;;;566109;250;24104;-79
2023/08/02 06:57:31;;;;;;;4.07;1.45;;;33.60;67.50;33.40;98867;;;;564917;246;23182;-79
2023/08/02 06:59:50;;;;;;;2.80;1.30;;;34.80;67.70;34.80;98862;;;;564481;250;23191;-80
2023/08/02 07:02:18;;;;;;;1.23;1.17;;;34.80;67.60;36.30;98860;;;;564586;250;23135;-80
2023/08/02 07:04:46;;;;;;;1.30;1.20;;;36.30;63.70;37.90;98872;;;;564743;250;23107;-79
2023/08/02 07:07:14;;;;;;;1.60;1.27;;;37.90;59.30;38.60;98876;;;;574111;249;23094;-81
2023/08/02 07:09:42;;;;;;;1.33;1.23;;;38.70;57.20;39.20;98875;;;;564887;250;23115;-80
2023/08/02 07:12:10;;;;;;;1.62;1.23;;;39.40;55.10;38.90;98884;;;;564282;250;23089;-80
2023/08/02 07:14:38;;;;;;;1.87;0.98;;;39.20;53.50;38.70;98891;;;;564142;250;23095;-83
2023/08/02 07:17:09;;;;;;;2.15;1.42;;;39.20;53.30;38.20;98903;;;;564066;250;24179;-79
2023/08/02 07:19:34;;;;;;;2.15;1.20;;;38.90;53.30;38.70;98890;;;;565151;250;24165;-80
2023/08/02 07:22:02;;;;;;;2.10;1.25;;;39.00;53.40;39.70;98898;;;;563767;250;23097;-81
2023/08/02 07:24:30;;;;;;;5.90;1.73;;;39.80;51.90;39.60;98899;;;;563869;250;23081;-80
2023/08/02 07:26:58;;;;;;;1.12;1.02;;;40.00;51.30;39.70;98906;;;;564135;250;23095;-81
2023/08/02 07:29:27;;;;;;;1.30;1.10;;;40.20;50.10;40.00;98895;;;;563835;250;23136;-81
2023/08/02 07:31:54;;;;;;;2.12;1.00;;;40.20;50.10;40.60;98882;;;;564597;250;23078;-81
2023/08/02 07:34:22;;;;;;;2.17;1.15;;;40.70;50.10;41.30;98905;;;;572865;246;23101;-83
2023/08/02 07:36:51;;;;;;;4.95;1.62;;;41.50;49.30;40.60;98904;;;;569318;248;23089;-84
2023/08/02 07:39:18;;;;;;;3.50;1.17;;;41.10;46.50;39.70;98906;;;;569218;248;23093;-86
2023/08/02 07:41:46;;;;;;;2.58;1.48;;;40.30;48.40;39.10;98909;;;;564710;250;23128;-84
2023/08/02 07:44:17;;;;;;;1.62;1.12;;;39.70;48.90;39.50;98910;;;;564513;250;23104;-84
2023/08/02 07:46:42;;;;;;;2.55;1.20;;;39.70;49.20;40.20;98901;;;;564344;250;23152;-83
2023/08/02 07:49:10;;;;;;;1.20;1.10;;;40.20;48.70;39.80;98913;;;;564269;250;23109;-86
2023/08/02 07:51:38;;;;;;;0.90;0.90;;;40.00;48.60;39.60;98910;;;;563750;250;23102;-81
2023/08/02 07:54:06;;;;;;;2.20;1.10;;;39.90;48.10;39.20;98901;;;;563955;250;23141;-82
2023/08/02 07:56:34;;;;;;;1.42;1.05;;;39.60;48.40;38.60;98919;;;;564487;250;23118;-89
2023/08/02 07:59:02;;;;;;;1.45;0.90;;;39.10;48.40;37.80;98926;;;;564172;250;23105;-85
2023/08/02 08:01:29;;;;;;;1.50;0.90;;;38.40;49.40;37.10;98926;;;;563899;250;23119;-83
2023/08/02 08:03:57;;;;;;;1.80;1.10;;;37.70;50.50;36.10;98930;;;;564178;249;23106;-81
2023/08/02 08:06:29;;;;;;;3.95;1.23;;;36.80;50.90;34.80;98927;;;;565496;250;23108;-84
2023/08/02 08:08:54;;;;;;;2.60;1.20;;;34.90;54.10;34.20;98935;;;;565015;250;23194;-84
2023/08/02 08:11:22;;;;;;;1.42;1.33;;;34.90;54.10;33.90;98935;;;;564694;250;24113;-83
2023/08/02 08:13:52;;;;;;;2.55;1.10;;;34.40;55.50;33.80;98932;;;;565096;250;23103;-88
2023/08/02 08:16:18;;;;;;;2.33;1.02;;;34.60;56.10;34.60;98931;;;;564463;250;23169;-80
2023/08/02 08:18:46;;;;;;;1.40;1.08;;;34.60;56.00;35.10;98945;;;;564937;250;23131;-89
2023/08/02 08:21:14;;;;;;;3.22;1.08;;;35.30;54.70;34.90;98939;;;;565020;250;23114;-88
2023/08/02 08:23:42;;;;;;;4.95;1.25;;;35.20;54.60;34.80;98938;;;;564938;250;23095;-88
2023/08/02 08:26:13;;;;;;;2.62;1.30;;;35.10;54.80;34.40;98943;;;;564604;250;23099;-87
2023/08/02 08:28:42;;;;;;;1.25;1.15;;;34.30;56.20;33.80;98944;;;;564410;250;23115;-85
2023/08/02 08:31:10;;;;;;;2.47;1.50;;;34.30;55.50;33.20;98948;;;;564573;250;23088;-88
2023/08/02 08:33:38;;;;;;;1.30;1.00;;;33.80;55.90;32.80;98948;;;;564558;250;23128;-87
2023/08/02 08:36:06;;;;;;;0.98;0.90;;;33.30;56.90;33.20;98949;;;;564427;250;23100;-89
2023/08/02 08:38:34;;;;;;;1.83;0.93;;;34.40;57.00;34.40;98949;;;;563199;250;24162;-87
2023/08/02 08:41:02;;;;;;;1.23;1.12;;;34.30;56.90;35.70;98947;;;;564270;250;24138;-85
2023/08/02 08:43:32;;;;;;;1.58;1.15;;;35.70;55.00;35.90;98955;;;;564159;250;23098;-85
2023/08/02 08:46:01;;;;;;;3.50;1.23;;;36.20;53.70;35.70;98947;;;;564204;250;23125;-84
2023/08/02 08:48:26;;;;;;;1.08;0.98;;;36.20;53.60;35.50;98952;;;;563548;250;23135;-87
2023/08/02 08:50:57;;;;;;;2.65;1.10;;;36.00;53.10;35.80;98952;;;;563136;250;23128;-83
2023/08/02 08:53:31;;;;;;;3.62;1.30;;;36.20;53.40;37.10;98952;;;;563710;250;24132;-86
2023/08/02 08:56:01;;;;;;;1.15;1.10;;;37.20;53.00;37.80;98966;;;;572720;248;23114;-83
2023/08/02 08:58:30;;;;;;;1.40;1.10;;;38.10;51.30;38.20;98965;;;;559621;252;23123;-84
2023/08/02 09:00:58;;;;;;;1.17;1.08;;;38.60;50.00;37.30;98959;;;;565388;251;23120;-86
2023/08/02 09:03:22;;;;;;;1.75;1.30;;;38.30;49.70;36.30;98958;;;;565402;245;24109;-83
2023/08/02 09:05:50;;;;;;;3.05;1.55;;;37.40;50.30;36.10;98969;;;;564362;249;23101;-83
2023/08/02 09:08:18;;;;;;;2.12;0.93;;;36.80;51.30;36.40;98960;;;;563397;252;23140;-82
2023/08/02 09:10:50;;;;;;;3.28;1.27;;;36.90;51.00;35.70;98969;;;;563819;250;23104;-82
2023/08/02 09:13:23;;;;;;;1.45;1.00;;;36.50;51.30;34.50;98963;;;;559072;250;24109;-83
2023/08/02 09:16:09;;;;;;;6.32;1.55;;;35.50;52.10;33.20;98961;;;;572666;249;23098;-82
2023/08/02 09:18:46;;;;;;;3.28;1.55;;;34.30;53.60;31.90;98968;;;;563736;250;23096;-86
2023/08/02 09:21:14;;;;;;;1.30;1.00;;;32.90;55.50;31.60;98956;;;;564224;252;23102;-87
2023/08/02 09:23:40;;;;;;;1.30;1.05;;;33.60;58.30;33.70;98944;;;;565007;250;24188;-84
2023/08/02 09:26:20;;;;;;;8.00;2.35;;;33.60;58.30;35.60;98959;;;;565586;251;24188;-87
2023/08/02 09:29:00;;;;;;;15.45;1.62;;;35.60;54.00;35.20;98947;;;;565072;250;23100;-85
2023/08/02 09:31:30;;;;;;;1.70;1.52;;;35.80;52.60;34.20;98944;;;;564287;252;23095;-79
2023/08/02 09:34:02;;;;;;;4.40;1.58;;;35.20;52.90;34.40;98944;;;;564712;252;23150;-83
2023/08/02 09:36:29;;;;;;;7.85;1.30;;;35.00;54.20;36.20;98931;;;;572452;250;23112;-82
2023/08/02 09:39:15;;;;;;;4.18;1.60;;;36.40;54.20;37.80;98945;;;;564137;250;23109;-82
2023/08/02 09:41:43;;;;;;;4.35;1.50;;;38.20;51.10;37.30;98947;;;;564204;250;23124;-81
2023/08/02 09:44:11;;;;;;;4.78;1.42;;;38.30;50.10;36.20;98940;;;;564813;250;23171;-82
2023/08/02 09:46:40;;;;;;;1.00;0.95;;;36.30;51.50;35.00;98940;;;;562734;250;23148;-81
2023/08/02 09:49:20;;;;;;;1.45;1.10;;;36.20;51.40;34.00;98944;;;;564414;250;23170;-79
2023/08/02 09:51:49;;;;;;;3.58;1.27;;;35.10;53.00;33.00;98945;;;;564247;251;23112;-80
2023/08/02 09:54:17;;;;;;;3.85;1.58;;;34.00;54.50;32.40;98944;;;;563994;250;23165;-79
2023/08/02 09:56:45;;;;;;;1.95;1.42;;;33.20;56.20;31.70;98946;;;;563770;249;23120;-79
2023/08/02 09:59:15;;;;;;;2.17;1.55;;;32.40;57.20;30.90;98953;;;;563267;251;23157;-81
2023/08/02 10:01:41;;;;;;;2.45;1.23;;;31.60;58.40;30.10;98943;;;;572897;245;23104;-79
2023/08/02 10:04:11;;;;;;;3.17;1.40;;;30.80;59.50;30.30;98944;;;;566109;249;24271;-80
2023/08/02 10:06:45;;;;;;;3.72;1.30;;;30.60;61.40;30.60;98950;;;;560730;252;23114;-79
2023/08/02 10:09:13;;;;;;;1.27;1.08;;;31.00;61.10;30.60;98935;;;;558013;252;35201;-81
2023/08/02 10:11:51;;;;;;;3.87;1.00;;;31.40;60.20;31.00;98932;;;;562034;252;24165;-81
2023/08/02 10:14:15;;;;;;;3.05;1.15;;;31.30;60.20;31.80;98941;;;;562697;251;27362;-85
2023/08/02 10:16:43;;;;;;;2.50;1.02;;;32.20;59.00;32.00;98940;;;;562427;252;23164;-82
2023/08/02 10:19:11;;;;;;;1.70;1.30;;;32.60;58.60;32.10;98938;;;;563141;250;23097;-85
2023/08/02 10:21:41;;;;;;;2.55;1.00;;;32.70;57.80;32.90;98942;;;;563349;250;23155;-87
2023/08/02 10:24:09;;;;;;;4.43;1.25;;;33.30;57.40;34.40;98944;;;;563204;250;23139;-80
2023/08/02 10:26:41;;;;;;;2.03;1.00;;;34.80;55.60;36.00;98948;;;;558337;250;35214;-86
2023/08/02 10:29:08;;;;;;;7.78;1.87;;;36.50;53.90;36.00;98948;;;;564137;252;23125;-83
2023/08/02 10:31:33;;;;;;;7.95;1.45;;;37.00;51.00;35.40;98952;;;;564025;248;23114;-82
2023/08/02 10:34:01;;;;;;;4.95;1.23;;;36.70;50.70;34.90;98956;;;;563711;249;23151;-83
2023/08/02 10:36:29;;;;;;;6.28;1.42;;;36.10;51.60;34.60;98960;;;;563396;251;23146;-85
2023/08/02 10:38:57;;;;;;;1.10;0.70;;;35.80;52.60;33.90;98959;;;;559366;249;23132;-87
2023/08/02 10:41:25;;;;;;;2.58;1.40;;;34.90;52.90;33.30;98957;;;;563368;252;23120;-82
2023/08/02 10:43:57;;;;;;;0.93;0.90;;;34.40;54.70;32.60;98959;;;;562995;252;23113;-88
2023/08/02 10:46:26;;;;;;;1.50;1.10;;;33.50;54.70;31.80;98961;;;;563961;250;23101;-81
2023/08/02 10:48:53;;;;;;;2.17;1.00;;;32.60;56.10;31.60;98966;;;;563667;250;23154;-84
2023/08/02 10:51:37;;;;;;;1.98;0.82;;;32.20;59.40;31.50;98957;;;;564178;252;24143;-80
2023/08/02 10:54:22;;;;;;;2.42;1.30;;;31.90;58.90;31.20;98964;;;;563139;252;24166;-80
2023/08/02 10:56:56;;;;;;;4.37;1.00;;;31.50;59.10;30.50;98960;;;;563658;252;23194;-80
2023/08/02 10:59:24;;;;;;;0.90;0.60;;;30.80;60.00;29.80;98958;;;;563441;250;23138;-80
2023/08/02 11:02:01;;;;;;;1.17;1.10;;;29.60;62.60;29.30;98960;;;;564416;252;23104;-80
2023/08/02 11:04:29;;;;;;;4.50;0.88;;;29.60;61.80;28.90;98962;;;;571404;251;23150;-79
2023/08/02 11:06:57;;;;;;;7.00;0.80;;;29.10;63.30;28.40;98961;;;;563469;250;24173;-80
2023/08/02 11:09:31;;;;;;;3.87;0.83;;;28.70;65.40;28.00;98953;;;;561331;250;23097;-79
2023/08/02 11:12:01;;;;;;;1.43;0.80;;;28.20;66.40;27.50;98957;;;;572132;248;23170;-82
2023/08/02 11:14:30;;;;;;;1.00;0.70;;;27.20;68.70;27.00;98952;;;;563081;250;23144;-81
2023/08/02 11:16:59;;;;;;;2.53;1.53;;;26.80;69.80;26.60;98952;;;;566333;250;23119;-81
2023/08/02 11:19:29;;;;;;;0.67;0.67;;;26.70;69.70;26.30;98955;;;;574849;246;23112;-81
2023/08/02 11:22:00;;;;;;;4.83;1.27;;;26.50;71.60;26.00;98947;;;;565696;250;23151;-86
2023/08/02 11:24:26;;;;;;;2.47;1.20;;;26.30;72.50;25.80;98943;;;;564290;252;23135;-82